首页
METAR-TAF:

METAR-TAF

机场 :

默特尔比奇, 南卡罗来纳州, 美国

纬度: 33-41N, 经度: 078-56W, 海拔: 8米

当前天气观测

该预报发布于34分钟前的15:56 UTC
风速9节,风向东转东南
温度 24°C
湿度 54%
气压 1025 hPa
能見度: 16.1公里
天空无云

METAR: KMYR 011556Z 12009KT 10SM CLR 24/14 A3027 RMK AO2 SLP249 T02390139

时间: 12:30 (16:30 UTC)

预报

该预报发布于5小时和10分钟前的11:20 UTC
预报有效从01日的 12点(UTC)到 02日的 12点(UTC)
风速8节,风向东北
能見度: 10公里
天空无云
从 01日的 1700点(UTC)
风速11节,风向
能見度: 10公里
天空无云
从 01日的 2000点(UTC)
风速11节,风向东南
能見度: 10公里
天空无云
从 02日的 0000点(UTC)
风速5节,风向南转南东
能見度: 10公里
天空无云

TAF: KMYR 011120Z 0112/0212 05008KT P6SM SKC FM011700 10011KT P6SM SKC FM012000 14011KT P6SM SKC FM020000 16005KT P6SM SKC

超过4000个机场的气象观测和天气预报(METAR&TAF报告)。

可查询的气象台以黄色和红色小点在地图上表示。

将鼠标移到小点上方,可查看气象台名称。

然后点击查看天气观测和预报。

如需切换地图:点击带黑十字的绿色按钮放大地图;点击带横线的绿色按钮缩小地图;或者点击绿色箭头查看邻近地区的地图。


METAR-TAF: